createdAt,value
2023-11-22T00:02:10.091Z,20.90
2023-11-22T00:04:38.250Z,18.70
2023-11-22T00:07:06.383Z,21.80
2023-11-22T00:09:34.598Z,22.70
2023-11-22T00:12:03.865Z,20.50
2023-11-22T00:14:32.156Z,21.00
2023-11-22T00:17:03.078Z,19.40
2023-11-22T00:19:31.789Z,15.30
2023-11-22T00:21:59.897Z,18.30
2023-11-22T00:24:28.124Z,17.30
2023-11-22T00:26:56.198Z,14.40
2023-11-22T00:29:24.424Z,16.80
2023-11-22T00:31:52.586Z,16.80
2023-11-22T00:34:21.457Z,14.00
2023-11-22T00:36:50.246Z,13.70
2023-11-22T00:39:19.823Z,17.80
2023-11-22T00:41:48.269Z,17.30
2023-11-22T00:44:16.487Z,21.90
2023-11-22T00:46:46.976Z,18.60
2023-11-22T00:49:15.270Z,16.90
2023-11-22T00:51:43.471Z,14.10
2023-11-22T00:54:11.656Z,10.20
2023-11-22T00:56:41.190Z,9.50
2023-11-22T00:59:09.833Z,11.10
2023-11-22T01:01:38.051Z,10.70
2023-11-22T01:04:08.287Z,9.30
2023-11-22T01:06:37.991Z,7.70
2023-11-22T01:09:06.551Z,9.30
2023-11-22T01:11:34.628Z,9.40
2023-11-22T01:14:03.345Z,9.20
2023-11-22T01:16:31.613Z,12.50
2023-11-22T01:18:59.893Z,12.10
2023-11-22T01:21:28.114Z,11.70
2023-11-22T01:23:56.589Z,10.70
2023-11-22T01:26:25.102Z,12.90
2023-11-22T01:28:53.417Z,12.40
2023-11-22T01:31:22.569Z,9.50
2023-11-22T01:33:50.842Z,9.80
2023-11-22T01:36:18.948Z,9.60
2023-11-22T01:38:47.647Z,8.40
2023-11-22T01:41:15.755Z,9.10
2023-11-22T01:43:43.954Z,9.10
2023-11-22T01:46:26.675Z,9.00
2023-11-22T01:48:55.854Z,8.90
2023-11-22T01:51:25.868Z,9.10
2023-11-22T01:53:57.982Z,9.90
2023-11-22T01:56:28.565Z,10.50
2023-11-22T01:58:59.175Z,10.30
2023-11-22T02:01:28.557Z,8.90
2023-11-22T02:03:56.847Z,7.20
2023-11-22T02:06:25.987Z,7.10
2023-11-22T02:08:54.099Z,7.30
2023-11-22T02:11:23.641Z,6.80
2023-11-22T02:13:52.585Z,7.50
2023-11-22T02:16:21.685Z,11.60
2023-11-22T02:18:50.441Z,7.60
2023-11-22T02:21:18.822Z,9.60
2023-11-22T02:23:47.826Z,7.70
2023-11-22T02:26:19.271Z,8.60
2023-11-22T02:28:48.403Z,9.50
2023-11-22T02:31:16.588Z,7.80
2023-11-22T02:33:46.498Z,10.30
2023-11-22T02:36:14.699Z,6.00
2023-11-22T02:38:45.378Z,6.80
2023-11-22T02:41:14.857Z,6.30
2023-11-22T02:43:43.153Z,9.40
2023-11-22T02:46:11.326Z,5.80
2023-11-22T02:48:40.173Z,6.10
2023-11-22T02:51:08.785Z,6.50
2023-11-22T02:53:37.025Z,6.60
2023-11-22T02:56:06.401Z,5.80
2023-11-22T02:58:34.762Z,6.10
2023-11-22T03:01:03.029Z,7.30
2023-11-22T03:03:31.339Z,6.40
2023-11-22T03:05:59.552Z,6.10
2023-11-22T03:08:28.392Z,5.70
2023-11-22T03:10:56.608Z,5.90
2023-11-22T03:13:24.781Z,5.80
2023-11-22T03:15:53.301Z,5.00
2023-11-22T03:18:22.818Z,5.70
2023-11-22T03:20:55.621Z,5.30
2023-11-22T03:23:24.128Z,5.90
2023-11-22T03:25:52.437Z,6.30
2023-11-22T03:28:20.576Z,6.00
2023-11-22T03:30:48.754Z,4.90
2023-11-22T03:33:17.595Z,5.90
2023-11-22T03:35:45.917Z,5.50
2023-11-22T03:38:14.375Z,5.30
2023-11-22T03:40:42.649Z,6.00
2023-11-22T03:43:11.648Z,6.00
2023-11-22T03:45:39.934Z,5.40
2023-11-22T03:48:08.246Z,5.70
2023-11-22T03:50:36.930Z,7.30
2023-11-22T03:53:05.467Z,6.40
2023-11-22T03:55:33.571Z,6.50
2023-11-22T03:58:02.464Z,13.90
2023-11-22T04:00:30.761Z,9.20
2023-11-22T04:03:01.412Z,8.00
2023-11-22T04:05:30.160Z,5.20
2023-11-22T04:07:58.405Z,5.20
2023-11-22T04:10:26.657Z,5.80
2023-11-22T04:12:54.839Z,5.40
2023-11-22T04:15:23.151Z,5.70
2023-11-22T04:17:51.754Z,6.40
2023-11-22T04:20:20.528Z,9.40
2023-11-22T04:22:48.915Z,9.60
2023-11-22T04:25:17.079Z,9.70
2023-11-22T04:27:45.228Z,7.90
2023-11-22T04:30:15.567Z,7.70
2023-11-22T04:32:45.670Z,9.50
2023-11-22T04:35:14.664Z,8.60
2023-11-22T04:37:44.297Z,10.80
2023-11-22T04:40:12.921Z,12.00
2023-11-22T04:42:41.400Z,10.00
2023-11-22T04:45:11.111Z,8.30
2023-11-22T04:47:39.683Z,6.60
2023-11-22T04:50:08.366Z,5.00
2023-11-22T04:52:36.656Z,5.30
2023-11-22T04:55:05.908Z,4.80
2023-11-22T04:57:34.695Z,4.60
2023-11-22T05:00:06.066Z,4.20
2023-11-22T05:02:34.482Z,4.60
2023-11-22T05:05:02.854Z,4.80
2023-11-22T05:07:30.989Z,5.40
2023-11-22T05:09:59.494Z,8.10
2023-11-22T05:12:27.837Z,8.40
2023-11-22T05:14:55.953Z,8.80
2023-11-22T05:17:24.479Z,8.60
2023-11-22T05:19:52.620Z,6.30
2023-11-22T05:22:20.858Z,6.40
2023-11-22T05:24:48.996Z,5.20
2023-11-22T05:27:17.991Z,4.90
2023-11-22T05:29:52.857Z,8.10
2023-11-22T05:32:23.780Z,6.00
2023-11-22T05:34:52.234Z,5.20
2023-11-22T05:37:22.173Z,5.50
2023-11-22T05:39:50.506Z,6.00
2023-11-22T05:42:19.367Z,5.90
2023-11-22T05:44:48.309Z,6.90
2023-11-22T05:47:19.923Z,9.80
2023-11-22T05:49:49.697Z,9.00
2023-11-22T05:52:21.821Z,9.50
2023-11-22T05:54:50.695Z,12.60
2023-11-22T05:57:21.527Z,10.30
2023-11-22T05:59:53.302Z,14.50
2023-11-22T06:02:23.764Z,7.60
2023-11-22T06:04:55.510Z,7.00
2023-11-22T06:07:26.204Z,7.80
2023-11-22T06:09:54.520Z,7.30
2023-11-22T06:12:26.399Z,5.90
2023-11-22T06:15:02.933Z,5.70
2023-11-22T06:17:36.581Z,5.00
2023-11-22T06:20:06.904Z,6.10
2023-11-22T06:22:38.800Z,6.50
2023-11-22T06:25:07.788Z,6.30
2023-11-22T06:27:36.844Z,8.00
2023-11-22T06:30:10.615Z,6.90
2023-11-22T06:32:39.043Z,8.00
2023-11-22T06:35:10.223Z,9.20
2023-11-22T06:37:38.988Z,12.40
2023-11-22T06:40:09.330Z,11.00
2023-11-22T06:42:37.950Z,9.40
2023-11-22T06:45:11.228Z,8.70
2023-11-22T06:47:40.674Z,9.40
2023-11-22T06:50:13.559Z,11.30
2023-11-22T06:52:42.632Z,16.50
2023-11-22T06:55:11.568Z,28.10
2023-11-22T06:57:40.444Z,9.00
2023-11-22T07:00:10.847Z,8.60
2023-11-22T07:02:39.590Z,8.20
2023-11-22T07:05:10.523Z,8.50
2023-11-22T07:07:41.665Z,6.90
2023-11-22T07:10:12.905Z,8.20
2023-11-22T07:12:41.328Z,16.90
2023-11-22T07:15:16.362Z,8.20
2023-11-22T07:17:44.556Z,7.30
2023-11-22T07:20:17.707Z,7.00
2023-11-22T07:22:47.417Z,7.40
2023-11-22T07:25:21.887Z,13.20
2023-11-22T07:30:21.299Z,6.10
2023-11-22T07:32:53.334Z,5.20
2023-11-22T07:35:22.105Z,9.80
2023-11-22T07:37:53.096Z,12.80
2023-11-22T07:40:24.387Z,8.40
2023-11-22T07:42:52.595Z,6.20
2023-11-22T07:45:20.738Z,6.10
2023-11-22T07:47:49.850Z,5.90
2023-11-22T07:50:23.340Z,5.60
2023-11-22T07:53:10.342Z,5.90
2023-11-22T07:55:43.282Z,5.00
2023-11-22T07:58:12.241Z,5.90
2023-11-22T08:00:50.953Z,5.80
2023-11-22T08:03:19.920Z,5.40
2023-11-22T08:06:03.155Z,5.70
2023-11-22T08:08:48.205Z,6.00
2023-11-22T08:11:22.347Z,6.20
2023-11-22T08:17:19.291Z,5.40
2023-11-22T08:19:51.886Z,4.90
2023-11-22T08:22:20.140Z,6.30
2023-11-22T08:24:48.981Z,5.80
2023-11-22T08:27:18.265Z,11.50
2023-11-22T08:29:50.792Z,7.60
2023-11-22T08:32:29.224Z,8.80
2023-11-22T08:34:58.814Z,7.00
2023-11-22T08:37:28.338Z,6.00
2023-11-22T08:39:56.430Z,6.40
2023-11-22T08:42:24.835Z,9.50
2023-11-22T08:44:53.169Z,6.70
2023-11-22T08:47:21.498Z,6.80
2023-11-22T08:49:49.761Z,9.60
2023-11-22T08:52:19.011Z,7.00
2023-11-22T08:54:49.017Z,9.80
2023-11-22T08:57:18.217Z,6.80
2023-11-22T08:59:46.579Z,8.70
2023-11-22T09:02:16.326Z,7.50
2023-11-22T09:04:44.969Z,10.30
2023-11-22T09:07:18.918Z,5.70
2023-11-22T09:09:49.572Z,10.20
2023-11-22T09:12:21.182Z,8.20
2023-11-22T09:14:49.750Z,9.20
2023-11-22T09:17:22.010Z,6.40
2023-11-22T09:20:38.121Z,8.00
2023-11-22T09:23:30.229Z,9.20
2023-11-22T09:26:02.467Z,7.80
2023-11-22T09:28:36.409Z,20.60
2023-11-22T09:31:20.427Z,13.70
2023-11-22T09:33:53.759Z,15.50
2023-11-22T09:36:23.452Z,23.60
2023-11-22T09:38:53.577Z,15.60
2023-11-22T09:41:23.014Z,7.90
2023-11-22T09:43:56.772Z,6.70
2023-11-22T09:46:27.913Z,8.40
2023-11-22T09:49:23.447Z,9.50
2023-11-22T09:51:57.357Z,6.90
2023-11-22T09:57:39.609Z,6.20
2023-11-22T10:00:19.801Z,9.30
2023-11-22T10:02:49.542Z,17.20
2023-11-22T10:05:22.002Z,14.20
2023-11-22T10:07:55.185Z,17.60
2023-11-22T10:10:24.504Z,12.00
2023-11-22T10:12:57.316Z,17.40
2023-11-22T10:15:29.218Z,14.70
2023-11-22T10:18:04.186Z,12.60
2023-11-22T10:20:44.071Z,11.50
2023-11-22T10:23:21.173Z,12.60
2023-11-22T10:25:54.495Z,11.90
2023-11-22T10:28:27.436Z,10.80
2023-11-22T10:30:56.060Z,12.90
2023-11-22T10:33:29.861Z,17.00
2023-11-22T10:36:05.486Z,10.80
2023-11-22T10:38:38.752Z,11.00
2023-11-22T10:41:10.008Z,13.10
2023-11-22T10:43:40.558Z,13.50
2023-11-22T10:46:12.793Z,17.10
2023-11-22T10:48:43.017Z,14.30
2023-11-22T10:51:15.769Z,14.00
2023-11-22T10:53:50.651Z,20.60
2023-11-22T10:56:22.392Z,19.40
2023-11-22T11:01:27.756Z,15.10
2023-11-22T11:04:13.134Z,14.60
2023-11-22T11:06:47.453Z,18.50
2023-11-22T11:09:18.029Z,18.10
2023-11-22T11:11:46.443Z,15.60
2023-11-22T11:14:16.688Z,14.80
2023-11-22T11:16:51.180Z,15.80
2023-11-22T11:19:19.805Z,16.40
2023-11-22T11:21:49.342Z,16.00
2023-11-22T11:24:19.541Z,16.80
2023-11-22T11:26:54.708Z,18.40
2023-11-22T11:29:33.443Z,13.40
2023-11-22T11:32:04.223Z,14.30
2023-11-22T11:34:32.484Z,14.80
2023-11-22T11:37:01.993Z,14.60
2023-11-22T11:39:31.908Z,16.50
2023-11-22T11:42:17.256Z,14.10
2023-11-22T11:45:08.535Z,22.60
2023-11-22T11:47:37.254Z,16.40
2023-11-22T11:50:06.651Z,17.50
2023-11-22T11:52:40.346Z,14.80
2023-11-22T11:55:08.958Z,15.50
2023-11-22T11:57:38.480Z,15.70
2023-11-22T12:00:07.708Z,16.90
2023-11-22T12:02:42.759Z,16.90
2023-11-22T12:05:11.107Z,16.20
2023-11-22T12:07:39.433Z,19.40
2023-11-22T12:10:08.079Z,23.40
2023-11-22T12:12:36.389Z,21.10
2023-11-22T12:15:06.017Z,22.30
2023-11-22T12:17:35.385Z,16.40
2023-11-22T12:20:17.669Z,17.70
2023-11-22T12:22:47.606Z,19.90
2023-11-22T12:25:16.117Z,12.60
2023-11-22T12:27:47.302Z,17.80
2023-11-22T12:30:35.606Z,16.50
2023-11-22T12:33:14.439Z,9.30
2023-11-22T12:35:45.558Z,17.00
2023-11-22T12:38:17.894Z,16.90
2023-11-22T12:40:50.383Z,18.00
2023-11-22T12:43:18.809Z,10.90
2023-11-22T12:45:47.937Z,9.20
2023-11-22T12:48:25.200Z,15.40
2023-11-22T12:50:55.390Z,11.00
2023-11-22T12:53:26.539Z,10.10
2023-11-22T12:55:59.075Z,10.50
2023-11-22T12:58:27.751Z,19.10
2023-11-22T13:01:02.032Z,16.00
2023-11-22T13:03:33.679Z,9.60
2023-11-22T13:06:04.861Z,9.50
2023-11-22T13:08:34.255Z,14.30
2023-11-22T13:11:02.736Z,10.10
2023-11-22T13:13:32.448Z,12.00
2023-11-22T13:16:01.353Z,12.90
2023-11-22T13:18:29.742Z,20.60
2023-11-22T13:20:58.250Z,9.70
2023-11-22T13:23:26.494Z,9.70
2023-11-22T13:25:54.986Z,8.60
2023-11-22T13:28:25.443Z,8.60
2023-11-22T13:30:53.590Z,8.50
2023-11-22T13:33:21.755Z,12.00
2023-11-22T13:35:50.244Z,9.20
2023-11-22T13:38:19.722Z,8.50
2023-11-22T13:40:48.004Z,7.70
2023-11-22T13:43:18.447Z,9.90
2023-11-22T13:45:46.942Z,10.70
2023-11-22T13:48:15.501Z,10.20
2023-11-22T13:50:43.920Z,10.70
2023-11-22T13:53:12.798Z,11.50
2023-11-22T13:55:41.262Z,13.00
2023-11-22T13:58:10.367Z,14.00
2023-11-22T14:00:40.150Z,12.20
2023-11-22T14:03:09.314Z,10.80
2023-11-22T14:05:40.172Z,10.10
2023-11-22T14:08:09.034Z,8.40
2023-11-22T14:10:37.634Z,8.80
2023-11-22T14:13:07.383Z,7.70
2023-11-22T14:15:36.657Z,10.00
2023-11-22T14:18:05.688Z,9.90
2023-11-22T14:20:36.165Z,8.20
2023-11-22T14:23:04.889Z,8.20
2023-11-22T14:25:33.194Z,8.40
2023-11-22T14:28:01.429Z,7.80
2023-11-22T14:30:31.963Z,7.60
2023-11-22T14:33:01.106Z,9.20
2023-11-22T14:35:29.571Z,7.50
2023-11-22T14:37:59.967Z,8.50
2023-11-22T14:40:28.678Z,8.00
2023-11-22T14:42:58.027Z,8.30
2023-11-22T14:45:28.379Z,8.20
2023-11-22T14:47:58.035Z,8.40
2023-11-22T14:50:29.824Z,8.10
2023-11-22T14:52:58.083Z,7.20
2023-11-22T14:55:27.598Z,9.40
2023-11-22T14:57:58.818Z,8.20
2023-11-22T15:00:27.625Z,6.30
2023-11-22T15:02:57.840Z,7.20
2023-11-22T15:05:27.550Z,7.80
2023-11-22T15:07:56.592Z,7.40
2023-11-22T15:10:26.971Z,7.90
2023-11-22T15:12:56.804Z,7.50
2023-11-22T15:15:27.241Z,7.30
2023-11-22T15:17:56.265Z,6.90
2023-11-22T15:20:24.916Z,6.60
2023-11-22T15:22:53.528Z,6.20
2023-11-22T15:25:21.809Z,6.90
2023-11-22T15:27:49.981Z,8.90
2023-11-22T15:30:20.449Z,10.40
2023-11-22T15:32:49.684Z,10.90
2023-11-22T15:35:19.148Z,11.10
2023-11-22T15:37:47.783Z,9.30
2023-11-22T15:40:18.738Z,10.10
2023-11-22T15:42:47.373Z,7.70
2023-11-22T15:45:15.387Z,6.70
2023-11-22T15:47:46.742Z,7.50
2023-11-22T15:50:17.859Z,9.60
2023-11-22T15:52:47.142Z,11.30
2023-11-22T15:55:15.301Z,14.00
2023-11-22T15:57:43.551Z,12.10
2023-11-22T16:00:13.980Z,15.30
2023-11-22T16:02:42.680Z,14.90
2023-11-22T16:05:13.603Z,12.50
2023-11-22T16:07:43.254Z,10.00
2023-11-22T16:10:12.453Z,11.10
2023-11-22T16:12:40.669Z,12.10
2023-11-22T16:15:09.871Z,12.10
2023-11-22T16:17:38.362Z,11.40
2023-11-22T16:20:12.520Z,12.60
2023-11-22T16:22:46.048Z,17.20
2023-11-22T16:25:15.679Z,18.50
2023-11-22T16:27:43.903Z,20.10
2023-11-22T16:30:12.631Z,19.10
2023-11-22T16:32:41.622Z,12.70
2023-11-22T16:35:13.705Z,11.10
2023-11-22T16:37:43.624Z,11.40
2023-11-22T16:40:11.853Z,12.60
2023-11-22T16:42:39.999Z,13.70
2023-11-22T16:45:09.114Z,13.20
2023-11-22T16:47:38.164Z,13.20
2023-11-22T16:50:08.666Z,17.60
2023-11-22T16:52:36.844Z,18.00
2023-11-22T16:55:05.809Z,14.90
2023-11-22T16:57:34.320Z,17.50
2023-11-22T17:00:06.413Z,16.20
2023-11-22T17:02:34.580Z,15.10
2023-11-22T17:05:04.289Z,14.90
2023-11-22T17:07:34.073Z,14.50
2023-11-22T17:10:02.178Z,15.10
2023-11-22T17:12:30.499Z,12.10
2023-11-22T17:14:58.647Z,10.60
2023-11-22T17:17:29.745Z,10.40
2023-11-22T17:19:58.080Z,9.90
2023-11-22T17:22:28.673Z,12.50
2023-11-22T17:24:58.815Z,13.90
2023-11-22T17:27:27.408Z,13.50
2023-11-22T17:29:55.772Z,16.70
2023-11-22T17:32:24.454Z,13.80
2023-11-22T17:34:53.692Z,13.60
2023-11-22T17:37:21.882Z,13.00
2023-11-22T17:39:52.842Z,12.40
2023-11-22T17:42:21.097Z,13.40
2023-11-22T17:44:52.969Z,11.80
2023-11-22T17:47:21.350Z,10.60
2023-11-22T17:49:52.434Z,10.00
2023-11-22T17:52:20.587Z,10.90
2023-11-22T17:54:48.806Z,10.80
2023-11-22T17:57:18.039Z,10.80
2023-11-22T17:59:46.193Z,11.50
2023-11-22T18:02:16.357Z,11.20
2023-11-22T18:04:44.770Z,10.60
2023-11-22T18:07:16.079Z,13.70
2023-11-22T18:09:47.209Z,15.70
2023-11-22T18:12:16.782Z,14.10
2023-11-22T18:14:48.221Z,14.30
2023-11-22T18:17:16.534Z,14.20
2023-11-22T18:19:47.077Z,12.00
2023-11-22T18:22:15.195Z,11.80
2023-11-22T18:24:43.276Z,13.30
2023-11-22T18:27:11.422Z,13.60
2023-11-22T18:29:39.626Z,16.30
2023-11-22T18:32:09.857Z,15.70
2023-11-22T18:34:38.626Z,13.70
2023-11-22T18:37:07.624Z,13.00
2023-11-22T18:39:35.752Z,12.70
2023-11-22T18:42:04.575Z,12.00
2023-11-22T18:44:37.564Z,12.00
2023-11-22T18:47:06.430Z,12.30
2023-11-22T18:49:34.981Z,13.10
2023-11-22T18:52:04.048Z,12.70
2023-11-22T18:54:32.133Z,11.70
2023-11-22T18:57:01.664Z,10.40
2023-11-22T18:59:29.896Z,11.30
2023-11-22T19:02:00.394Z,11.50
2023-11-22T19:04:28.796Z,13.50
2023-11-22T19:06:56.899Z,15.70
2023-11-22T19:09:25.114Z,15.60
2023-11-22T19:11:53.446Z,14.80
2023-11-22T19:14:22.848Z,13.70
2023-11-22T19:16:50.998Z,13.90
2023-11-22T19:19:21.666Z,10.60
2023-11-22T19:21:49.833Z,11.10
2023-11-22T19:24:18.021Z,12.30
2023-11-22T19:26:47.226Z,11.90
2023-11-22T19:29:15.250Z,12.60
2023-11-22T19:31:44.920Z,11.00
2023-11-22T19:34:15.954Z,11.70
2023-11-22T19:36:47.251Z,11.80
2023-11-22T19:39:17.799Z,12.40
2023-11-22T19:41:46.018Z,13.60
2023-11-22T19:44:15.722Z,12.30
2023-11-22T19:46:44.020Z,12.20
2023-11-22T19:49:13.746Z,13.10
2023-11-22T19:51:43.162Z,11.90
2023-11-22T19:54:12.259Z,11.20
2023-11-22T19:56:41.713Z,10.60
2023-11-22T19:59:09.846Z,9.80
2023-11-22T20:01:43.619Z,10.80
2023-11-22T20:06:46.397Z,12.40
2023-11-22T20:09:15.016Z,12.60
2023-11-22T20:11:43.073Z,12.90
2023-11-22T20:14:11.491Z,12.20
2023-11-22T20:16:39.765Z,9.40
2023-11-22T20:19:08.181Z,10.00
2023-11-22T20:21:43.404Z,11.10
2023-11-22T20:24:11.739Z,10.30
2023-11-22T20:26:39.941Z,11.40
2023-11-22T20:29:08.231Z,11.10
2023-11-22T20:31:36.452Z,10.60
2023-11-22T20:34:04.884Z,11.20
2023-11-22T20:36:33.282Z,8.90
2023-11-22T20:39:01.336Z,10.90
2023-11-22T20:41:29.890Z,10.10
2023-11-22T20:44:00.215Z,10.70
2023-11-22T20:46:28.587Z,9.60
2023-11-22T20:48:56.724Z,10.00
2023-11-22T20:51:24.889Z,9.70
2023-11-22T20:53:53.166Z,11.10
2023-11-22T20:56:21.321Z,12.20
2023-11-22T20:58:49.515Z,12.00
2023-11-22T21:01:17.734Z,12.10
2023-11-22T21:03:46.044Z,13.40
2023-11-22T21:06:17.767Z,11.00
2023-11-22T21:08:48.895Z,10.10
2023-11-22T21:11:17.658Z,11.10
2023-11-22T21:13:46.234Z,10.40
2023-11-22T21:16:14.351Z,10.40
2023-11-22T21:18:42.757Z,11.30
2023-11-22T21:21:14.581Z,10.40
2023-11-22T21:23:43.459Z,10.30
2023-11-22T21:26:13.585Z,9.20
2023-11-22T21:28:43.136Z,8.90
2023-11-22T21:31:19.874Z,8.90
2023-11-22T21:33:49.516Z,9.40
2023-11-22T21:36:18.725Z,9.80
2023-11-22T21:38:47.205Z,11.30
2023-11-22T21:41:15.709Z,9.60
2023-11-22T21:43:44.403Z,9.70
2023-11-22T21:46:19.883Z,9.30
2023-11-22T21:48:48.164Z,8.30
2023-11-22T21:51:16.609Z,9.30
2023-11-22T21:53:44.808Z,8.60
2023-11-22T21:56:12.960Z,8.00
2023-11-22T21:58:41.160Z,7.10
2023-11-22T22:01:12.140Z,7.40
2023-11-22T22:03:42.267Z,7.40
2023-11-22T22:06:11.109Z,7.60
2023-11-22T22:08:42.691Z,9.40
2023-11-22T22:11:11.160Z,9.30
2023-11-22T22:13:39.329Z,9.50
2023-11-22T22:16:07.906Z,9.20
2023-11-22T22:18:38.177Z,10.00
2023-11-22T22:21:06.789Z,9.70
2023-11-22T22:23:35.983Z,9.60
2023-11-22T22:26:05.488Z,9.50
2023-11-22T22:28:33.847Z,9.80
2023-11-22T22:31:02.384Z,10.80
2023-11-22T22:33:30.586Z,10.10
2023-11-22T22:35:59.197Z,9.60
2023-11-22T22:38:27.264Z,8.80
2023-11-22T22:40:55.463Z,8.60
2023-11-22T22:43:23.587Z,8.60
2023-11-22T22:45:52.279Z,10.00
2023-11-22T22:48:21.144Z,9.70
2023-11-22T22:50:49.712Z,11.30
2023-11-22T22:53:18.365Z,11.60
2023-11-22T22:55:46.678Z,10.30
2023-11-22T22:58:14.921Z,10.10
2023-11-22T23:00:43.213Z,8.90
2023-11-22T23:03:13.259Z,11.40
2023-11-22T23:05:42.011Z,10.80
2023-11-22T23:08:10.810Z,12.00
2023-11-22T23:10:39.616Z,12.80
2023-11-22T23:13:08.456Z,10.40
2023-11-22T23:15:38.122Z,9.20
2023-11-22T23:18:07.688Z,9.00
2023-11-22T23:20:46.317Z,9.40
2023-11-22T23:23:18.937Z,10.40
2023-11-22T23:25:48.030Z,11.50
2023-11-22T23:28:16.490Z,11.50
2023-11-22T23:30:44.666Z,11.20
2023-11-22T23:33:13.032Z,9.50
2023-11-22T23:35:44.065Z,8.60
2023-11-22T23:38:12.163Z,9.70
2023-11-22T23:40:40.322Z,8.80
2023-11-22T23:43:09.452Z,9.10
2023-11-22T23:45:38.748Z,9.60
2023-11-22T23:48:07.245Z,6.80
2023-11-22T23:50:35.661Z,6.20
2023-11-22T23:53:03.877Z,5.90
2023-11-22T23:55:31.960Z,6.20
2023-11-22T23:57:59.993Z,6.30
